Time;durP1;ratioP1;P1;durP2;ratioP2;P2;SDS_P1;SDS_P2;PMS_P1;PMS_P2;Temp;Humidity;BMP_temperature;BMP_pressure;BME280_temperature;BME280_humidity;BME280_pressure;Samples;Min_cycle;Max_cycle;Signal;HPM_P1;HPM_P2
2021/03/07 00:01:16;;;;;;;15.40;7.72;;;-4.10;99.90;;;;;;20875686;28;20151;-49
2021/03/07 00:11:18;;;;;;;15.70;7.50;;;-4.20;99.90;;;;;;20857557;28;20053;-51
2021/03/07 00:21:20;;;;;;;17.08;6.72;;;-4.20;99.90;;;;;;20856759;28;20102;-49
2021/03/07 00:31:22;;;;;;;18.13;8.57;;;-4.10;99.90;;;;;;20871881;28;20548;-47
2021/03/07 00:41:23;;;;;;;17.33;7.82;;;-4.20;99.90;;;;;;20839427;28;20041;-48
2021/03/07 00:51:26;;;;;;;17.42;7.90;;;-4.10;99.90;;;;;;20888692;28;20407;-47
2021/03/07 01:01:27;;;;;;;12.45;6.90;;;-4.20;99.90;;;;;;20871273;28;20445;-55
2021/03/07 01:11:29;;;;;;;16.83;8.02;;;-4.30;99.90;;;;;;20886938;28;20052;-55
2021/03/07 01:21:31;;;;;;;18.90;8.77;;;-4.30;99.90;;;;;;20853516;28;20064;-52
2021/03/07 01:31:33;;;;;;;23.50;9.00;;;-4.30;99.90;;;;;;20852840;28;20037;-51
2021/03/07 01:41:35;;;;;;;16.52;8.20;;;-4.30;99.90;;;;;;20887023;28;20378;-48
2021/03/07 01:51:37;;;;;;;16.27;7.55;;;-4.30;99.90;;;;;;20851810;28;20049;-46
2021/03/07 02:01:40;;;;;;;16.88;8.35;;;-4.30;99.90;;;;;;20886888;28;20041;-47
2021/03/07 02:11:42;;;;;;;18.65;8.43;;;-4.30;99.90;;;;;;20867306;28;20053;-48
2021/03/07 02:21:50;;;;;;;19.25;9.45;;;-4.40;99.90;;;;;;20867163;28;20087;-46
2021/03/07 02:31:57;;;;;;;15.63;7.40;;;-4.50;99.90;;;;;;20867051;28;20483;-48
2021/03/07 02:42:08;;;;;;;21.35;9.80;;;-4.50;99.90;;;;;;20862021;28;20041;-49
2021/03/07 02:52:10;;;;;;;17.60;9.02;;;-4.50;99.90;;;;;;20898728;28;20045;-55
2021/03/07 03:02:12;;;;;;;20.20;9.75;;;-4.50;99.90;;;;;;20880244;28;20029;-46
2021/03/07 03:12:15;;;;;;;18.73;9.20;;;-4.60;99.90;;;;;;20862729;28;20071;-47
2021/03/07 03:22:18;;;;;;;18.52;8.02;;;-4.60;99.90;;;;;;20861583;28;20475;-48
2021/03/07 03:32:20;;;;;;;18.98;8.07;;;-4.60;99.90;;;;;;20861097;28;20045;-52
2021/03/07 03:42:23;;;;;;;18.88;8.95;;;-4.70;99.90;;;;;;20894728;28;20037;-51
2021/03/07 03:52:29;;;;;;;19.40;9.15;;;-4.70;99.90;;;;;;20875712;28;20045;-58
2021/03/07 04:02:35;;;;;;;16.95;8.23;;;-4.70;99.90;;;;;;20893491;28;20045;-53
2021/03/07 04:12:38;;;;;;;20.83;9.50;;;-4.60;99.90;;;;;;20892066;28;20041;-50
2021/03/07 04:22:39;;;;;;;17.80;8.20;;;-4.70;99.90;;;;;;20891230;28;20063;-48
2021/03/07 04:32:42;;;;;;;21.67;9.90;;;-4.60;99.90;;;;;;20857044;28;20041;-48
2021/03/07 04:42:44;;;;;;;20.33;8.52;;;-4.60;99.90;;;;;;20854934;28;20552;-47
2021/03/07 04:52:47;;;;;;;20.15;8.98;;;-4.40;99.90;;;;;;20888690;28;20060;-55
2021/03/07 05:02:49;;;;;;;18.70;8.82;;;-4.60;99.90;;;;;;20872263;28;20053;-47
2021/03/07 05:12:51;;;;;;;18.48;8.57;;;-4.60;99.90;;;;;;20855349;28;20063;-52
2021/03/07 05:22:53;;;;;;;17.88;8.45;;;-4.60;99.90;;;;;;20886962;28;20037;-50
2021/03/07 05:32:55;;;;;;;18.85;8.50;;;-4.60;99.90;;;;;;20839803;28;20044;-47
2021/03/07 05:42:58;;;;;;;19.63;8.20;;;-4.70;99.90;;;;;;20852236;28;20533;-49
2021/03/07 05:53:00;;;;;;;22.05;9.38;;;-4.50;99.90;;;;;;20848666;28;20045;-52
2021/03/07 06:03:02;;;;;;;20.85;9.65;;;-4.30;99.90;;;;;;20867148;28;20446;-49
2021/03/07 06:13:10;;;;;;;17.95;8.55;;;-4.10;99.90;;;;;;20900446;28;20045;-46
2021/03/07 06:23:14;;;;;;;17.10;7.70;;;-3.90;99.90;;;;;;20882557;28;20041;-52
2021/03/07 06:33:30;;;;;;;15.73;6.90;;;-3.70;99.90;;;;;;20848720;28;20110;-49
2021/03/07 06:43:34;;;;;;;13.05;6.60;;;-3.30;99.90;;;;;;20899513;28;20094;-47
2021/03/07 06:53:44;;;;;;;15.50;7.25;;;-3.30;99.90;;;;;;20848240;28;20041;-51
2021/03/07 07:03:57;;;;;;;10.87;5.77;;;-3.00;99.90;;;;;;20844572;28;20057;-47
2021/03/07 07:14:01;;;;;;;15.30;7.90;;;-2.60;99.90;;;;;;20896902;28;20063;-50
2021/03/07 07:24:03;;;;;;;15.98;7.00;;;-2.30;99.90;;;;;;20878769;28;20639;-49
2021/03/07 07:34:19;;;;;;;15.95;8.52;;;-1.60;99.90;;;;;;20861334;28;20036;-48
2021/03/07 07:44:33;;;;;;;15.95;8.40;;;-0.90;99.90;;;;;;20876268;28;20033;-49
2021/03/07 07:54:58;;;;;;;14.00;7.88;;;0.00;99.90;;;;;;20859389;28;20033;-46
2021/03/07 08:04:59;;;;;;;14.23;7.97;;;1.00;99.90;;;;;;20874659;28;20049;-47
2021/03/07 08:15:25;;;;;;;12.38;8.18;;;1.90;99.90;;;;;;20891743;28;20647;-48
2021/03/07 08:25:47;;;;;;;14.32;7.95;;;2.70;99.90;;;;;;20856587;28;20075;-48
2021/03/07 08:36:11;;;;;;;11.48;7.47;;;3.10;99.90;;;;;;20792644;28;20461;-46
2021/03/07 08:46:20;;;;;;;12.23;7.30;;;3.70;99.90;;;;;;20872124;28;20047;-46
2021/03/07 08:56:25;;;;;;;12.43;7.70;;;4.30;99.90;;;;;;20889096;28;20487;-48
2021/03/07 09:06:29;;;;;;;12.68;7.72;;;4.50;99.90;;;;;;20887819;28;20075;-47
2021/03/07 09:16:45;;;;;;;13.07;7.90;;;5.00;99.90;;;;;;20870014;28;20094;-51
2021/03/07 09:26:48;;;;;;;12.63;7.90;;;5.30;99.90;;;;;;20885949;28;20099;-46
2021/03/07 09:36:50;;;;;;;11.77;7.80;;;5.90;99.90;;;;;;20851951;28;20376;-46
2021/03/07 09:46:53;;;;;;;11.93;8.02;;;6.30;98.60;;;;;;20840385;28;20049;-50
2021/03/07 09:56:55;;;;;;;13.68;8.25;;;6.50;95.40;;;;;;20885008;28;20047;-51
2021/03/07 10:06:58;;;;;;;13.80;8.68;;;6.40;96.80;;;;;;20883059;28;20550;-45
2021/03/07 10:17:01;;;;;;;13.27;8.18;;;6.40;95.10;;;;;;20901610;28;20106;-46
2021/03/07 10:27:08;;;;;;;12.10;6.88;;;6.30;96.40;;;;;;20900002;28;20463;-46
2021/03/07 10:37:35;;;;;;;12.35;7.55;;;6.50;96.00;;;;;;20900064;28;20041;-45
2021/03/07 10:47:37;;;;;;;13.07;7.97;;;6.50;96.10;;;;;;20865018;28;20411;-45
2021/03/07 10:57:39;;;;;;;10.35;7.43;;;6.60;96.00;;;;;;20863494;28;20079;-49
2021/03/07 11:07:42;;;;;;;13.15;7.57;;;6.90;95.70;;;;;;20879549;28;20122;-46
2021/03/07 11:17:44;;;;;;;11.82;7.38;;;6.90;94.70;;;;;;20862495;28;20037;-45
2021/03/07 11:27:46;;;;;;;10.73;7.07;;;7.40;94.00;;;;;;20877458;28;20412;-46
2021/03/07 11:37:50;;;;;;;12.95;7.40;;;7.70;92.30;;;;;;20860250;28;20081;-46
2021/03/07 11:47:52;;;;;;;13.00;7.38;;;7.80;91.50;;;;;;20877032;28;20468;-49
2021/03/07 11:57:54;;;;;;;13.80;7.82;;;7.90;93.30;;;;;;20874382;28;20083;-47
2021/03/07 12:07:57;;;;;;;11.25;7.22;;;7.30;92.00;;;;;;20977899;23;20054;-46
2021/03/07 12:17:59;;;;;;;11.55;7.88;;;7.60;92.50;;;;;;20775970;28;20091;-45
2021/03/07 12:28:00;;;;;;;11.63;7.43;;;7.80;91.10;;;;;;20808567;28;20045;-47
2021/03/07 12:38:03;;;;;;;12.90;8.13;;;7.60;91.30;;;;;;20757651;28;20033;-45
2021/03/07 12:48:05;;;;;;;12.60;7.85;;;7.60;90.50;;;;;;20756912;28;20470;-45
2021/03/07 12:58:07;;;;;;;13.90;8.43;;;6.90;90.10;;;;;;20787845;28;20099;-45
2021/03/07 13:08:09;;;;;;;13.20;7.97;;;6.90;93.60;;;;;;20803698;28;20103;-45
2021/03/07 13:18:11;;;;;;;14.55;8.27;;;6.90;90.60;;;;;;20805729;28;20034;-45
2021/03/07 13:28:14;;;;;;;13.80;8.65;;;7.00;92.50;;;;;;20804138;28;20041;-46
2021/03/07 13:38:16;;;;;;;11.45;8.38;;;7.10;93.30;;;;;;20793590;28;20496;-49
2021/03/07 13:48:19;;;;;;;14.93;8.52;;;7.30;91.00;;;;;;20852385;28;20248;-46
2021/03/07 13:58:22;;;;;;;11.75;8.30;;;7.10;92.00;;;;;;20849852;28;20455;-45
2021/03/07 14:08:24;;;;;;;11.77;8.20;;;6.70;92.30;;;;;;20776886;28;20061;-48
2021/03/07 14:18:26;;;;;;;14.25;8.77;;;6.00;93.20;;;;;;20835026;28;20071;-53
2021/03/07 14:28:28;;;;;;;13.48;8.85;;;5.40;94.90;;;;;;20835133;28;20333;-47
2021/03/07 14:38:30;;;;;;;14.27;8.73;;;5.10;95.70;;;;;;20829858;28;20084;-49
2021/03/07 14:48:33;;;;;;;17.33;8.60;;;4.90;96.00;;;;;;20799154;28;20103;-47
2021/03/07 14:58:35;;;;;;;18.27;9.20;;;4.80;96.50;;;;;;20795925;28;20038;-47
2021/03/07 15:08:37;;;;;;;14.40;8.50;;;4.40;96.20;;;;;;20814519;28;20107;-49
2021/03/07 15:18:39;;;;;;;14.88;8.95;;;4.00;97.80;;;;;;20763281;28;20033;-47
2021/03/07 15:28:41;;;;;;;15.35;9.75;;;3.70;99.10;;;;;;20814150;28;20034;-48
2021/03/07 15:38:44;;;;;;;17.33;9.77;;;3.50;99.20;;;;;;20811026;28;20037;-50
2021/03/07 15:48:46;;;;;;;18.08;9.82;;;3.10;99.90;;;;;;20794505;28;20049;-47
2021/03/07 15:58:48;;;;;;;14.02;8.85;;;2.80;99.90;;;;;;20768136;28;20021;-48
2021/03/07 16:08:50;;;;;;;18.73;9.30;;;2.40;99.90;;;;;;20829942;28;20046;-47
2021/03/07 16:18:51;;;;;;;22.83;10.10;;;1.80;99.90;;;;;;20810749;28;20045;-47
2021/03/07 16:28:53;;;;;;;19.15;9.88;;;1.30;99.90;;;;;;20777939;28;20071;-47
2021/03/07 16:38:55;;;;;;;16.42;9.05;;;0.90;99.90;;;;;;20807487;28;20033;-47
2021/03/07 16:48:58;;;;;;;16.65;9.85;;;0.50;99.90;;;;;;20836733;28;20045;-47
2021/03/07 16:59:01;;;;;;;18.70;10.32;;;0.10;99.90;;;;;;20809679;28;20115;-48
2021/03/07 17:09:07;;;;;;;23.60;11.07;;;-0.30;99.90;;;;;;20805764;28;20229;-47
2021/03/07 17:19:10;;;;;;;19.00;10.23;;;-0.70;99.90;;;;;;20789633;28;20049;-51
2021/03/07 17:29:17;;;;;;;23.95;10.73;;;-0.90;99.90;;;;;;20818496;28;20476;-46
2021/03/07 17:39:40;;;;;;;20.65;10.35;;;-1.20;99.90;;;;;;20759640;28;20037;-49
2021/03/07 17:49:42;;;;;;;17.77;10.15;;;-1.30;99.90;;;;;;20770641;28;20038;-49
2021/03/07 17:59:45;;;;;;;23.15;11.63;;;-1.40;99.90;;;;;;20768458;28;20050;-50
2021/03/07 18:09:47;;;;;;;20.77;10.80;;;-1.50;99.90;;;;;;20809918;28;20084;-47
2021/03/07 18:19:50;;;;;;;23.63;11.15;;;-1.60;99.90;;;;;;20819697;28;20029;-53
2021/03/07 18:29:52;;;;;;;19.95;10.80;;;-1.70;99.90;;;;;;20816412;28;20103;-47
2021/03/07 18:39:54;;;;;;;22.45;10.82;;;-1.80;99.90;;;;;;20784027;28;20041;-49
2021/03/07 18:49:56;;;;;;;19.65;10.07;;;-1.80;99.90;;;;;;20783289;28;20103;-51
2021/03/07 18:59:58;;;;;;;22.38;10.73;;;-2.00;99.90;;;;;;20798755;28;20542;-46
2021/03/07 19:10:01;;;;;;;16.42;8.68;;;-2.10;99.90;;;;;;20764584;28;20050;-47
2021/03/07 19:20:09;;;;;;;21.35;10.07;;;-2.10;99.90;;;;;;20781606;28;20087;-46
2021/03/07 19:30:14;;;;;;;22.95;8.23;;;-2.20;99.90;;;;;;20795387;28;20454;-47
2021/03/07 19:40:19;;;;;;;20.05;9.57;;;-2.10;99.90;;;;;;20794566;28;20042;-47
2021/03/07 19:50:29;;;;;;;18.42;9.60;;;-2.10;99.90;;;;;;20794695;28;20049;-48
2021/03/07 20:00:37;;;;;;;18.45;8.93;;;-2.20;99.90;;;;;;20840974;28;20091;-48
2021/03/07 20:11:00;;;;;;;14.80;8.05;;;-2.30;99.90;;;;;;20809533;28;20103;-55
2021/03/07 20:21:13;;;;;;;12.70;5.93;;;-2.30;99.90;;;;;;20777204;28;20095;-48
2021/03/07 20:31:16;;;;;;;15.90;8.10;;;-2.50;99.90;;;;;;20774886;28;20483;-49
2021/03/07 20:41:21;;;;;;;22.75;10.55;;;-2.50;99.90;;;;;;20786204;28;20037;-47
2021/03/07 20:51:25;;;;;;;28.45;12.75;;;-2.40;99.90;;;;;;20789834;28;20487;-47
2021/03/07 21:01:37;;;;;;;16.90;8.13;;;-2.50;99.90;;;;;;20759175;28;20467;-49
2021/03/07 21:11:41;;;;;;;15.88;8.40;;;-2.40;99.90;;;;;;20706600;28;20064;-48
2021/03/07 21:21:44;;;;;;;20.45;8.88;;;-2.50;99.90;;;;;;20723233;28;20088;-47
2021/03/07 21:31:48;;;;;;;19.77;9.70;;;-2.50;99.90;;;;;;20722443;28;20127;-47
2021/03/07 21:41:50;;;;;;;15.82;8.85;;;-2.50;99.90;;;;;;20712666;28;20064;-48
2021/03/07 21:51:52;;;;;;;17.15;9.10;;;-2.70;99.90;;;;;;20749327;28;20053;-47
2021/03/07 22:01:54;;;;;;;19.30;9.27;;;-2.80;99.90;;;;;;20716412;28;20087;-51
2021/03/07 22:11:56;;;;;;;14.40;7.18;;;-2.80;99.90;;;;;;20731680;28;20450;-48
2021/03/07 22:22:11;;;;;;;17.55;8.55;;;-2.90;99.90;;;;;;20747317;28;20042;-47
2021/03/07 22:32:13;;;;;;;21.38;9.88;;;-2.90;99.90;;;;;;20730976;28;20555;-47
2021/03/07 22:42:15;;;;;;;18.20;9.30;;;-2.80;99.90;;;;;;20748537;28;20045;-49
2021/03/07 22:52:17;;;;;;;13.55;6.78;;;-2.80;99.90;;;;;;20726896;28;20053;-48
2021/03/07 23:02:19;;;;;;;22.98;11.23;;;-2.90;99.90;;;;;;20734940;28;20029;-50
2021/03/07 23:12:21;;;;;;;20.83;9.13;;;-3.00;99.90;;;;;;20797675;28;20042;-48
2021/03/07 23:22:23;;;;;;;17.45;8.80;;;-2.80;99.90;;;;;;20796725;28;20026;-49
2021/03/07 23:32:25;;;;;;;19.38;8.65;;;-3.00;99.90;;;;;;20780378;28;20160;-51
2021/03/07 23:42:27;;;;;;;15.02;6.80;;;-3.20;99.90;;;;;;20795424;28;20052;-46
2021/03/07 23:52:28;;;;;;;23.63;11.93;;;-3.20;99.90;;;;;;20811990;28;20103;-46
